Time;durP1;ratioP1;P1;durP2;ratioP2;P2;SDS_P1;SDS_P2;PMS_P1;PMS_P2;Temp;Humidity;BMP_temperature;BMP_pressure;BME280_temperature;BME280_humidity;BME280_pressure;Samples;Min_cycle;Max_cycle;Signal;HPM_P1;HPM_P2
2021/09/09 00:06:01;;;;;;;17.25;13.68;;;18.20;99.90;;;;;;2631166;54;20157;-82
2021/09/09 00:08:30;;;;;;;15.50;13.60;;;18.20;99.90;;;;;;2631207;54;20168;-83
2021/09/09 00:10:59;;;;;;;15.57;13.60;;;18.20;99.90;;;;;;2631276;54;20145;-81
2021/09/09 00:16:14;;;;;;;16.90;14.32;;;18.20;99.90;;;;;;2631027;47;20730;-83
2021/09/09 00:29:15;;;;;;;20.70;15.60;;;17.40;99.90;;;;;;2631817;54;20196;-81
2021/09/09 00:37:16;;;;;;;19.75;17.60;;;16.70;99.90;;;;;;2631618;54;20220;-81
2021/09/09 00:45:24;;;;;;;19.48;17.02;;;16.40;99.90;;;;;;2633614;54;20130;-82
2021/09/09 00:50:31;;;;;;;19.75;17.73;;;16.20;99.90;;;;;;2631609;54;20200;-81
2021/09/09 00:55:34;;;;;;;19.85;17.70;;;16.40;99.90;;;;;;2640051;39;21202;31
2021/09/09 01:19:59;;;;;;;19.33;17.35;;;16.40;99.90;;;;;;2631033;54;20212;-82
2021/09/09 01:25:32;;;;;;;18.70;16.77;;;16.30;99.90;;;;;;2629263;54;20252;-82
2021/09/09 01:30:49;;;;;;;18.95;16.95;;;16.60;99.90;;;;;;2630347;54;20212;-82
2021/09/09 01:38:57;;;;;;;18.30;16.50;;;16.90;99.90;;;;;;2630406;54;20201;-82
2021/09/09 01:44:10;;;;;;;20.15;16.73;;;16.80;99.90;;;;;;2632698;54;20129;-83
2021/09/09 02:06:01;;;;;;;20.88;17.92;;;16.50;99.90;;;;;;2628600;46;20224;-81
2021/09/09 02:16:16;;;;;;;22.35;20.08;;;16.40;99.90;;;;;;2631627;47;20129;-82
2021/09/09 02:18:52;;;;;;;23.27;19.55;;;16.40;99.90;;;;;;2628446;54;20203;-83
2021/09/09 02:24:07;;;;;;;23.92;21.45;;;16.40;99.90;;;;;;2627234;54;20223;-82
2021/09/09 02:32:05;;;;;;;23.67;21.17;;;16.30;99.90;;;;;;2624855;54;20184;31
2021/09/09 02:37:08;;;;;;;23.73;21.23;;;16.20;99.90;;;;;;2632482;54;20145;-82
2021/09/09 02:39:42;;;;;;;23.90;21.50;;;16.20;99.90;;;;;;2630113;47;20269;-82
2021/09/09 02:44:49;;;;;;;23.25;20.88;;;16.10;99.90;;;;;;2631513;54;20152;-82
2021/09/09 02:47:21;;;;;;;23.33;20.83;;;16.20;99.90;;;;;;2630368;54;21314;31
2021/09/09 02:52:26;;;;;;;23.70;21.25;;;16.10;99.90;;;;;;2632402;54;20141;-82
2021/09/09 02:54:55;;;;;;;22.67;20.45;;;16.10;99.90;;;;;;2632272;47;20125;-82
2021/09/09 02:57:23;;;;;;;19.83;17.83;;;16.10;99.90;;;;;;2631428;47;20148;-81
2021/09/09 03:02:36;;;;;;;20.02;18.05;;;16.10;99.90;;;;;;2632377;54;20193;-80
2021/09/09 03:05:06;;;;;;;19.55;17.58;;;16.00;99.90;;;;;;2632209;54;20177;-81
2021/09/09 03:07:35;;;;;;;19.58;17.67;;;16.00;99.90;;;;;;2632223;47;20177;-81
2021/09/09 03:15:26;;;;;;;19.77;17.83;;;15.90;99.90;;;;;;2632271;54;20134;-81
2021/09/09 03:17:57;;;;;;;20.23;18.27;;;15.80;99.90;;;;;;2632179;54;20200;-81
2021/09/09 03:20:26;;;;;;;19.65;17.55;;;15.80;99.90;;;;;;2632221;47;20133;-82
2021/09/09 03:22:55;;;;;;;21.38;19.27;;;15.80;99.90;;;;;;2632261;47;20122;-83
2021/09/09 03:28:05;;;;;;;21.10;17.85;;;15.90;99.90;;;;;;2632290;54;20145;-82
2021/09/09 03:30:34;;;;;;;20.45;18.52;;;15.80;99.90;;;;;;2632092;47;20148;-83
2021/09/09 03:33:05;;;;;;;20.48;18.50;;;15.90;99.90;;;;;;2631422;47;20126;-83
2021/09/09 03:35:34;;;;;;;21.23;19.02;;;15.90;99.90;;;;;;2631344;46;20152;-82
2021/09/09 03:38:03;;;;;;;20.02;17.83;;;15.90;99.90;;;;;;2631140;47;20165;-82
2021/09/09 03:40:32;;;;;;;21.92;19.63;;;15.80;99.90;;;;;;2631062;47;20156;-82
2021/09/09 03:45:56;;;;;;;21.88;19.42;;;15.70;99.90;;;;;;2625676;54;20204;-81
2021/09/09 03:48:28;;;;;;;20.30;18.25;;;15.60;99.90;;;;;;2631117;36;20205;-82
2021/09/09 03:50:57;;;;;;;19.95;17.92;;;15.50;99.90;;;;;;2631222;54;20150;-81
2021/09/09 03:53:26;;;;;;;19.10;17.20;;;15.60;99.90;;;;;;2630938;47;20253;-82
2021/09/09 03:55:55;;;;;;;19.65;17.65;;;15.60;99.90;;;;;;2631217;47;20149;-82
2021/09/09 03:58:24;;;;;;;19.75;17.20;;;15.60;99.90;;;;;;2630739;54;20145;-82
2021/09/09 04:00:53;;;;;;;21.98;19.42;;;15.60;99.90;;;;;;2631301;47;20150;-83
2021/09/09 04:03:22;;;;;;;21.42;17.80;;;15.70;99.90;;;;;;2631278;46;20149;-83
2021/09/09 04:05:54;;;;;;;19.50;17.65;;;15.60;99.90;;;;;;2631138;47;20172;-81
2021/09/09 04:19:19;;;;;;;20.77;18.73;;;15.30;99.90;;;;;;2631237;54;20995;-80
2021/09/09 04:21:51;;;;;;;20.55;18.42;;;15.30;99.90;;;;;;2631001;47;20167;-82
2021/09/09 04:24:20;;;;;;;19.75;17.83;;;15.40;99.90;;;;;;2631123;54;20161;-82
2021/09/09 04:26:49;;;;;;;20.40;18.25;;;15.50;99.90;;;;;;2631136;47;20129;-82
2021/09/09 04:29:19;;;;;;;20.13;17.88;;;15.40;99.90;;;;;;2631048;47;20155;-82
2021/09/09 04:31:47;;;;;;;21.52;19.23;;;15.40;99.90;;;;;;2629351;47;20137;-78
2021/09/09 04:34:16;;;;;;;20.80;18.48;;;15.30;99.90;;;;;;2630141;54;20169;-80
2021/09/09 04:36:46;;;;;;;20.27;18.42;;;15.30;99.90;;;;;;2630422;54;20153;-82
2021/09/09 04:39:17;;;;;;;20.95;18.85;;;15.30;99.90;;;;;;2630497;54;20141;-82
2021/09/09 04:41:46;;;;;;;21.20;18.98;;;15.30;99.90;;;;;;2631977;39;20606;-80
2021/09/09 04:44:15;;;;;;;19.92;17.67;;;15.30;99.90;;;;;;2634849;39;20781;-79
2021/09/09 04:46:44;;;;;;;19.45;17.50;;;15.20;99.90;;;;;;2630074;47;20706;-80
2021/09/09 04:49:13;;;;;;;20.98;18.75;;;15.20;99.90;;;;;;2630292;47;20161;-80
2021/09/09 04:51:42;;;;;;;20.70;18.70;;;15.20;99.90;;;;;;2629900;54;20161;-79
2021/09/09 04:54:11;;;;;;;20.77;17.60;;;15.20;99.90;;;;;;2629718;54;20136;-79
2021/09/09 04:56:43;;;;;;;21.13;18.10;;;15.20;99.90;;;;;;2630413;54;20156;-81
2021/09/09 04:59:11;;;;;;;20.05;18.02;;;15.10;99.90;;;;;;2630640;47;20157;-81
2021/09/09 05:01:40;;;;;;;18.98;17.15;;;15.10;99.90;;;;;;2629426;54;20180;-79
2021/09/09 05:04:09;;;;;;;20.25;18.20;;;15.00;99.90;;;;;;2630283;47;20182;-81
2021/09/09 05:06:38;;;;;;;20.83;18.02;;;15.10;99.90;;;;;;2631406;54;20161;-80
2021/09/09 05:09:07;;;;;;;19.20;17.20;;;15.00;99.90;;;;;;2631279;39;20616;-81
2021/09/09 05:11:35;;;;;;;21.40;18.95;;;15.00;99.90;;;;;;2631282;47;20185;-81
2021/09/09 05:14:07;;;;;;;21.13;17.60;;;15.10;99.90;;;;;;2630607;47;20716;-76
2021/09/09 05:16:37;;;;;;;18.77;16.88;;;15.10;99.90;;;;;;2630861;54;20161;-77
2021/09/09 05:19:07;;;;;;;21.33;19.13;;;15.20;99.90;;;;;;2631164;54;20174;-80
2021/09/09 05:21:37;;;;;;;20.42;18.20;;;15.20;99.90;;;;;;2631003;47;20213;-79
2021/09/09 05:24:07;;;;;;;20.90;18.88;;;15.20;99.90;;;;;;2630878;46;20168;-80
2021/09/09 05:26:35;;;;;;;18.95;16.88;;;15.30;99.90;;;;;;2631418;47;20174;-79
2021/09/09 05:29:07;;;;;;;20.15;17.33;;;15.50;99.90;;;;;;2631390;54;20149;-81
2021/09/09 05:31:36;;;;;;;22.77;20.40;;;15.40;99.90;;;;;;2631201;54;20176;-80
2021/09/09 05:34:05;;;;;;;20.25;18.17;;;15.50;99.90;;;;;;2630949;47;20153;-79
2021/09/09 05:36:34;;;;;;;23.52;21.17;;;15.50;99.90;;;;;;2630979;47;20250;-79
2021/09/09 05:39:03;;;;;;;23.98;21.00;;;15.40;99.90;;;;;;2630922;54;20125;-80
2021/09/09 05:41:32;;;;;;;22.83;20.52;;;15.40;99.90;;;;;;2631338;47;20844;-80
2021/09/09 05:44:03;;;;;;;22.73;20.30;;;15.30;99.90;;;;;;2631039;46;20168;-78
2021/09/09 05:46:35;;;;;;;21.63;19.40;;;15.20;99.90;;;;;;2630931;54;20137;-80
2021/09/09 05:49:04;;;;;;;21.35;18.05;;;15.10;99.90;;;;;;2630583;54;20153;-81
2021/09/09 05:51:34;;;;;;;20.60;18.45;;;15.20;99.90;;;;;;2631096;47;20153;-76
2021/09/09 05:54:02;;;;;;;20.15;17.48;;;15.40;99.90;;;;;;2630558;54;20136;-80
2021/09/09 05:56:31;;;;;;;20.27;18.23;;;15.30;99.90;;;;;;2631017;46;20149;-78
2021/09/09 05:59:02;;;;;;;18.58;16.58;;;15.30;99.90;;;;;;2632259;39;20734;-76
2021/09/09 06:01:37;;;;;;;19.08;17.08;;;15.30;99.90;;;;;;2630823;54;20144;-79
2021/09/09 06:04:08;;;;;;;19.38;17.48;;;15.30;99.90;;;;;;2630853;47;20157;-80
2021/09/09 06:06:37;;;;;;;34.63;30.95;;;15.30;99.90;;;;;;2630805;47;20145;-80
2021/09/09 06:09:06;;;;;;;21.85;19.23;;;15.50;99.90;;;;;;2630435;47;20153;-81
2021/09/09 06:11:35;;;;;;;22.98;19.67;;;15.70;99.90;;;;;;2630519;54;20718;-82
2021/09/09 06:14:04;;;;;;;24.48;21.88;;;15.90;99.90;;;;;;2630611;54;20168;-80
2021/09/09 06:16:38;;;;;;;33.05;29.63;;;16.00;99.90;;;;;;2629773;47;20155;-80
2021/09/09 06:19:08;;;;;;;24.25;21.52;;;16.20;99.90;;;;;;2629973;54;20149;-79
2021/09/09 06:21:38;;;;;;;27.13;24.38;;;16.20;99.90;;;;;;2624986;54;20161;-79
2021/09/09 06:24:08;;;;;;;23.25;20.70;;;16.40;99.90;;;;;;2628913;54;20149;-82
2021/09/09 06:26:37;;;;;;;24.63;21.65;;;16.50;99.90;;;;;;2630672;39;20597;-80
2021/09/09 06:29:05;;;;;;;22.17;19.88;;;16.60;99.90;;;;;;2630263;46;20157;-76
2021/09/09 06:31:37;;;;;;;24.52;21.90;;;16.60;99.90;;;;;;2629303;47;20217;-76
2021/09/09 06:34:06;;;;;;;22.25;19.90;;;16.90;99.90;;;;;;2630081;54;20149;-79
2021/09/09 06:36:35;;;;;;;22.25;19.88;;;17.10;99.90;;;;;;2629808;54;20133;-79
2021/09/09 06:39:03;;;;;;;20.85;18.73;;;17.20;99.90;;;;;;2630566;39;20341;-81
2021/09/09 06:41:32;;;;;;;19.23;17.20;;;17.50;99.90;;;;;;2628768;54;20176;-78
2021/09/09 06:44:01;;;;;;;19.27;17.33;;;17.60;99.90;;;;;;2628682;54;20149;-78
2021/09/09 06:46:30;;;;;;;18.13;16.27;;;17.50;99.90;;;;;;2629715;54;20201;-78
2021/09/09 06:49:03;;;;;;;17.52;15.57;;;17.50;99.90;;;;;;2629925;54;20769;-79
2021/09/09 06:51:32;;;;;;;18.13;16.25;;;17.20;99.90;;;;;;2629771;54;20156;-77
2021/09/09 06:54:01;;;;;;;18.38;15.05;;;17.10;99.90;;;;;;2629485;47;20145;-79
2021/09/09 06:56:34;;;;;;;17.48;15.00;;;17.10;99.90;;;;;;2629532;47;20268;-78
2021/09/09 06:59:09;;;;;;;16.08;14.38;;;17.10;99.90;;;;;;2629471;47;20153;-78
2021/09/09 07:01:41;;;;;;;17.00;15.35;;;17.30;99.90;;;;;;2629348;54;20524;-78
2021/09/09 07:04:20;;;;;;;17.63;15.82;;;17.50;99.90;;;;;;2629298;54;20896;-79
2021/09/09 07:07:16;;;;;;;;;;;;;;;;;;;;;
2021/09/09 07:10:24;;;;;;;17.58;15.52;;;17.80;99.90;;;;;;2628854;54;20150;-79
2021/09/09 07:13:48;;;;;;;17.02;14.68;;;18.00;99.90;;;;;;2628114;54;20281;-76
2021/09/09 07:16:17;;;;;;;15.80;14.15;;;18.10;99.90;;;;;;2629115;54;20155;-79
2021/09/09 07:18:46;;;;;;;17.60;15.55;;;18.20;99.90;;;;;;2629536;54;20165;-79
2021/09/09 07:21:18;;;;;;;15.82;14.27;;;18.30;99.90;;;;;;2628535;54;20149;-78
2021/09/09 07:23:47;;;;;;;15.32;13.65;;;18.30;99.90;;;;;;2628842;51;20185;-78
2021/09/09 07:26:15;;;;;;;19.33;14.75;;;18.50;99.90;;;;;;2628542;47;20209;-79
2021/09/09 07:28:47;;;;;;;15.25;13.75;;;18.50;99.90;;;;;;2628865;54;20847;-80
2021/09/09 07:31:19;;;;;;;17.48;15.68;;;18.60;99.90;;;;;;2640261;31;20700;-79
2021/09/09 07:33:48;;;;;;;17.15;15.35;;;18.90;99.90;;;;;;2628045;46;20169;-80
2021/09/09 07:36:19;;;;;;;15.75;13.68;;;18.90;99.90;;;;;;2629626;54;20181;-79
2021/09/09 07:38:48;;;;;;;13.90;12.60;;;19.10;99.90;;;;;;2627072;47;20197;-80
2021/09/09 07:41:18;;;;;;;15.05;13.50;;;19.20;99.90;;;;;;2624480;46;20160;-77
2021/09/09 07:43:47;;;;;;;17.05;13.05;;;19.40;99.90;;;;;;2624843;47;20185;-79
2021/09/09 07:46:16;;;;;;;15.55;13.30;;;19.50;99.90;;;;;;2625167;39;20590;-78
2021/09/09 07:48:45;;;;;;;14.35;12.90;;;19.70;99.90;;;;;;2624450;39;20579;-76
2021/09/09 07:51:18;;;;;;;14.05;12.38;;;19.80;99.90;;;;;;2622485;47;20149;-77
2021/09/09 07:53:49;;;;;;;14.25;12.85;;;20.10;99.90;;;;;;2623134;47;20741;-77
2021/09/09 07:56:18;;;;;;;13.23;11.82;;;20.30;99.90;;;;;;2622630;54;20168;-77
2021/09/09 07:58:49;;;;;;;12.02;10.73;;;20.40;99.90;;;;;;2621930;54;20722;-79
2021/09/09 08:01:19;;;;;;;13.02;11.43;;;20.50;99.90;;;;;;2628249;47;20181;-77
2021/09/09 08:03:49;;;;;;;12.07;10.88;;;20.50;99.90;;;;;;2628841;47;20137;-77
2021/09/09 08:06:18;;;;;;;11.85;10.63;;;20.70;99.90;;;;;;2628586;47;20157;-76
2021/09/09 08:08:49;;;;;;;15.82;11.68;;;20.90;99.90;;;;;;2629111;46;20145;-76
2021/09/09 08:11:18;;;;;;;15.00;11.77;;;21.10;99.90;;;;;;2628441;47;20160;-77
2021/09/09 08:13:51;;;;;;;11.98;10.77;;;21.10;99.90;;;;;;2627028;54;20188;-77
2021/09/09 08:16:20;;;;;;;14.35;9.45;;;21.20;99.90;;;;;;2628071;47;20161;-77
2021/09/09 08:18:49;;;;;;;12.27;10.70;;;21.30;99.90;;;;;;2631983;39;20729;-78
2021/09/09 08:21:19;;;;;;;10.88;9.77;;;21.50;99.90;;;;;;2628160;54;20157;-77
2021/09/09 08:23:50;;;;;;;13.55;9.80;;;21.80;99.90;;;;;;2627160;54;20741;-77
2021/09/09 08:26:19;;;;;;;13.70;10.32;;;21.80;99.90;;;;;;2627938;47;20157;-77
2021/09/09 08:28:48;;;;;;;11.30;10.15;;;21.80;99.90;;;;;;2628847;47;20130;-78
2021/09/09 08:31:17;;;;;;;11.32;9.15;;;22.00;99.90;;;;;;2627605;47;20172;-78
2021/09/09 08:33:46;;;;;;;9.88;8.80;;;22.10;99.90;;;;;;2628184;39;20624;-78
2021/09/09 08:36:16;;;;;;;10.00;9.00;;;22.20;99.90;;;;;;2627924;54;20156;-76
2021/09/09 08:38:45;;;;;;;10.00;8.93;;;22.20;99.90;;;;;;2628847;47;20160;-78
2021/09/09 08:41:16;;;;;;;13.20;9.38;;;22.40;99.90;;;;;;2628616;47;20157;-77
2021/09/09 08:43:46;;;;;;;9.73;8.73;;;22.70;99.90;;;;;;2629057;47;20196;-78
2021/09/09 08:46:16;;;;;;;10.05;8.40;;;22.70;99.90;;;;;;2629262;47;20192;-79
2021/09/09 08:48:46;;;;;;;11.35;8.10;;;22.80;99.90;;;;;;2629184;47;20145;-78
2021/09/09 08:51:16;;;;;;;9.25;8.25;;;23.00;99.90;;;;;;2629284;47;20167;-77
2021/09/09 08:53:46;;;;;;;9.10;8.32;;;23.10;99.90;;;;;;2629461;47;20173;-78
2021/09/09 08:56:18;;;;;;;11.60;10.15;;;23.10;99.90;;;;;;2629889;54;20157;-77
2021/09/09 08:58:47;;;;;;;9.70;8.27;;;23.30;99.90;;;;;;2629349;54;20141;-78
2021/09/09 09:01:18;;;;;;;9.15;8.23;;;23.40;99.90;;;;;;2629112;47;20145;-77
2021/09/09 09:03:49;;;;;;;10.27;9.20;;;23.50;99.90;;;;;;2628425;46;20169;-78
2021/09/09 09:06:36;;;;;;;9.15;8.35;;;23.60;99.90;;;;;;2627718;54;20707;-75
2021/09/09 09:09:08;;;;;;;12.07;8.05;;;23.90;99.90;;;;;;2631256;39;20623;-78
2021/09/09 09:11:42;;;;;;;11.88;9.07;;;24.00;99.90;;;;;;2627132;54;20165;-78
2021/09/09 09:14:12;;;;;;;10.80;9.40;;;24.00;99.90;;;;;;2628066;54;20149;-77
2021/09/09 09:16:49;;;;;;;10.15;9.15;;;24.10;99.90;;;;;;2628161;54;20158;-78
2021/09/09 09:19:20;;;;;;;10.77;8.48;;;24.20;99.90;;;;;;2627795;39;20589;-77
2021/09/09 09:21:53;;;;;;;8.88;7.97;;;24.20;99.90;;;;;;2628422;39;20478;-78
2021/09/09 09:24:23;;;;;;;8.73;7.93;;;24.20;99.90;;;;;;2627204;47;20157;-77
2021/09/09 09:27:19;;;;;;;9.93;8.90;;;24.20;99.90;;;;;;2628537;46;20161;-81
2021/09/09 09:30:01;;;;;;;13.27;11.05;;;24.40;99.90;;;;;;2629452;54;20175;-77
2021/09/09 09:32:30;;;;;;;8.07;7.32;;;24.50;99.90;;;;;;2629635;47;20203;-80
2021/09/09 09:35:11;;;;;;;10.27;8.48;;;24.90;99.90;;;;;;2629326;47;20205;-78
2021/09/09 09:37:54;;;;;;;10.98;8.05;;;25.00;99.90;;;;;;2629684;54;20168;-81
2021/09/09 09:40:29;;;;;;;10.40;8.02;;;25.20;99.90;;;;;;2628427;54;20149;-79
2021/09/09 09:43:02;;;;;;;9.80;8.75;;;24.90;99.90;;;;;;2629948;46;20149;-80
2021/09/09 09:45:32;;;;;;;11.02;8.23;;;25.30;99.90;;;;;;2629620;47;20188;-77
2021/09/09 09:48:00;;;;;;;9.18;8.23;;;25.50;99.90;;;;;;2629649;47;20153;-78
2021/09/09 09:50:40;;;;;;;8.50;7.70;;;25.40;99.90;;;;;;2629761;46;20164;-79
2021/09/09 09:53:17;;;;;;;12.65;10.43;;;25.70;99.90;;;;;;2629828;47;20179;-81
2021/09/09 09:55:48;;;;;;;10.40;7.90;;;25.70;99.90;;;;;;2629707;47;20197;-78
2021/09/09 09:58:20;;;;;;;9.68;7.88;;;26.00;99.90;;;;;;2630152;46;20363;-79
2021/09/09 10:00:49;;;;;;;7.88;7.18;;;26.30;99.90;;;;;;2629349;46;20153;-79
2021/09/09 10:03:18;;;;;;;10.95;7.13;;;26.30;99.90;;;;;;2629061;47;21457;-80
2021/09/09 10:05:47;;;;;;;9.30;8.27;;;26.40;99.90;;;;;;2628956;54;20138;-79
2021/09/09 10:08:16;;;;;;;10.07;7.97;;;26.30;99.90;;;;;;2630000;46;20213;-80
2021/09/09 10:10:48;;;;;;;9.98;7.85;;;26.40;99.90;;;;;;2629984;47;20150;-80
2021/09/09 10:13:21;;;;;;;8.30;7.28;;;26.60;99.90;;;;;;2636495;39;20394;-81
2021/09/09 10:15:52;;;;;;;12.25;8.40;;;26.80;99.90;;;;;;2630380;47;20153;-80
2021/09/09 10:18:21;;;;;;;8.98;8.07;;;26.80;99.90;;;;;;2629972;54;20156;-77
2021/09/09 10:20:52;;;;;;;7.78;7.03;;;26.80;99.90;;;;;;2629771;47;20179;-79
2021/09/09 10:23:27;;;;;;;8.85;7.55;;;27.10;99.90;;;;;;2629854;54;20161;-78
2021/09/09 10:25:59;;;;;;;9.02;8.00;;;27.30;99.90;;;;;;2630139;54;20157;-80
2021/09/09 10:28:54;;;;;;;9.05;6.78;;;27.60;99.90;;;;;;2629628;47;20416;-82
2021/09/09 10:31:24;;;;;;;7.72;7.03;;;27.60;99.90;;;;;;2628883;47;20153;-80
2021/09/09 18:19:49;;;;;;;;;;;27.90;99.90;;;;;;208716;46;2295338331;31
2021/09/09 18:22:22;;;;;;;8.40;7.60;;;25.90;99.90;;;;;;2625250;39;20617;-40
2021/09/09 18:24:51;;;;;;;8.50;7.60;;;25.60;99.90;;;;;;2616870;54;20141;-39
2021/09/09 18:27:20;;;;;;;9.43;7.97;;;25.50;99.90;;;;;;2617155;54;20176;-38
2021/09/09 18:29:48;;;;;;;13.70;8.52;;;25.40;99.90;;;;;;2617029;39;20400;-38
2021/09/09 18:32:17;;;;;;;11.25;8.65;;;25.30;99.90;;;;;;2617368;39;20563;-40
2021/09/09 18:34:46;;;;;;;10.10;9.10;;;25.20;99.90;;;;;;2616858;54;20168;-40
2021/09/09 18:37:15;;;;;;;9.25;8.32;;;25.10;99.90;;;;;;2617089;54;20161;-43
2021/09/09 18:39:46;;;;;;;8.65;7.85;;;25.10;99.90;;;;;;2616712;54;20157;-43
2021/09/09 18:42:15;;;;;;;10.18;9.18;;;25.10;99.90;;;;;;2617131;54;20176;-43
2021/09/09 18:44:43;;;;;;;9.75;8.85;;;25.00;99.90;;;;;;2617256;39;20618;-42
2021/09/09 18:47:12;;;;;;;10.57;9.60;;;24.90;99.90;;;;;;2616725;54;20146;-44
2021/09/09 18:49:41;;;;;;;8.93;8.15;;;24.90;99.90;;;;;;2616892;54;20172;-43
2021/09/09 18:52:10;;;;;;;11.48;8.73;;;24.90;99.90;;;;;;2617042;54;20157;-43
2021/09/09 18:54:38;;;;;;;11.15;8.43;;;25.30;99.90;;;;;;2616916;54;20152;-44
2021/09/09 18:57:10;;;;;;;17.70;9.48;;;25.10;99.90;;;;;;2617226;54;20150;-42
2021/09/09 18:59:38;;;;;;;9.55;8.68;;;25.00;99.90;;;;;;2617008;54;20146;-46
2021/09/09 19:02:07;;;;;;;9.88;8.90;;;24.90;99.90;;;;;;2617052;52;20177;-43
2021/09/09 19:04:38;;;;;;;17.20;9.38;;;24.80;99.90;;;;;;2616370;54;20145;-42
2021/09/09 19:07:07;;;;;;;10.32;9.32;;;24.70;99.90;;;;;;2616678;54;20146;-43
2021/09/09 19:09:38;;;;;;;10.98;8.68;;;24.40;99.90;;;;;;2616570;54;20156;-45
2021/09/09 19:12:12;;;;;;;8.98;8.10;;;24.30;99.90;;;;;;2629298;54;21288;-81
2021/09/09 19:14:42;;;;;;;11.73;8.48;;;24.20;99.90;;;;;;2631378;47;20126;-82
2021/09/09 19:17:15;;;;;;;10.05;8.50;;;24.20;99.90;;;;;;2629654;47;20129;31
2021/09/09 19:19:45;;;;;;;10.30;9.13;;;24.10;99.90;;;;;;2631309;54;20173;-82
2021/09/09 19:22:16;;;;;;;9.85;8.18;;;24.00;99.90;;;;;;2630058;46;20222;-81
2021/09/09 19:27:30;;;;;;;9.15;8.23;;;24.10;99.90;;;;;;2630172;54;20133;31
2021/09/09 19:30:00;;;;;;;10.82;8.93;;;24.00;99.90;;;;;;2630366;47;20224;-82
2021/09/09 19:32:29;;;;;;;10.73;8.82;;;24.00;99.90;;;;;;2631310;54;20151;-83
2021/09/09 19:34:59;;;;;;;10.90;9.10;;;23.90;99.90;;;;;;2631364;54;20134;-84
2021/09/09 19:37:29;;;;;;;9.32;8.52;;;24.00;99.90;;;;;;2631373;47;20180;-84
2021/09/09 19:42:35;;;;;;;10.75;8.60;;;23.80;99.90;;;;;;2632608;46;20187;-82
2021/09/09 19:45:05;;;;;;;9.77;8.77;;;23.70;99.90;;;;;;2631067;47;20181;-82
2021/09/09 19:47:34;;;;;;;10.63;9.13;;;23.70;99.90;;;;;;2630756;47;20133;-83
2021/09/09 19:50:03;;;;;;;10.63;9.10;;;23.70;99.90;;;;;;2631815;46;20157;-84
2021/09/09 20:00:29;;;;;;;14.15;10.18;;;23.50;99.90;;;;;;2631248;54;20138;-80
2021/09/09 20:02:58;;;;;;;9.68;8.75;;;23.40;99.90;;;;;;2630975;47;20475;-82
2021/09/09 20:05:27;;;;;;;8.73;7.93;;;23.30;99.90;;;;;;2631102;54;20141;-83
2021/09/09 20:13:08;;;;;;;9.38;8.43;;;23.20;99.90;;;;;;2619962;54;20204;-82
2021/09/09 20:18:14;;;;;;;12.52;9.80;;;22.90;99.90;;;;;;2624774;54;20196;-82
2021/09/09 20:31:59;;;;;;;8.60;7.78;;;22.60;99.90;;;;;;2625702;54;20232;-82
2021/09/09 20:48:02;;;;;;;15.18;10.02;;;22.40;99.90;;;;;;2603472;54;20185;31
2021/09/09 21:03:59;;;;;;;12.52;11.23;;;22.10;99.90;;;;;;2631850;54;20165;-79
2021/09/09 21:06:28;;;;;;;13.27;12.02;;;22.20;99.90;;;;;;2631730;54;20201;-80
2021/09/09 21:08:57;;;;;;;13.90;12.45;;;22.10;99.90;;;;;;2631356;54;20168;-81
2021/09/09 21:11:28;;;;;;;12.35;11.35;;;22.00;99.90;;;;;;2631228;46;20151;-80
2021/09/09 21:13:57;;;;;;;12.15;10.95;;;21.90;99.90;;;;;;2631294;54;20185;-79
2021/09/09 21:16:26;;;;;;;10.75;9.75;;;21.90;99.90;;;;;;2628647;47;20212;-79
2021/09/09 21:18:55;;;;;;;11.70;9.52;;;22.10;99.90;;;;;;2629925;47;20149;-79
2021/09/09 21:21:26;;;;;;;11.15;8.68;;;22.30;99.90;;;;;;2631736;39;20815;-78
2021/09/09 21:23:55;;;;;;;9.48;8.48;;;22.60;99.90;;;;;;2630445;47;20141;-80
2021/09/09 21:26:23;;;;;;;9.23;8.30;;;22.80;99.90;;;;;;2630766;54;20137;-81
2021/09/09 21:28:52;;;;;;;9.40;7.88;;;22.90;99.90;;;;;;2630538;54;20217;-80
2021/09/09 21:31:21;;;;;;;7.65;6.50;;;23.00;99.90;;;;;;2630732;47;20133;-83
2021/09/09 21:33:50;;;;;;;6.45;5.82;;;23.00;99.90;;;;;;2631347;47;20134;-82
2021/09/09 21:36:19;;;;;;;9.93;5.43;;;22.90;99.90;;;;;;2631346;46;20177;-82
2021/09/09 21:38:50;;;;;;;6.00;4.78;;;22.90;99.90;;;;;;2631310;54;20138;-80
2021/09/09 21:41:19;;;;;;;4.25;3.78;;;23.00;99.90;;;;;;2631739;47;20203;-82
2021/09/09 21:43:50;;;;;;;5.13;3.60;;;22.90;99.90;;;;;;2630613;46;20219;-81
2021/09/09 21:46:18;;;;;;;4.32;2.67;;;22.90;99.90;;;;;;2631331;54;20145;-82
2021/09/09 21:48:47;;;;;;;5.60;3.13;;;22.80;99.90;;;;;;2631580;54;20205;-82
2021/09/09 21:51:16;;;;;;;2.60;1.75;;;22.80;99.90;;;;;;2636775;39;20627;-81
2021/09/09 21:53:45;;;;;;;4.13;2.47;;;22.60;99.90;;;;;;2631428;47;20146;-82
2021/09/09 21:56:18;;;;;;;4.57;2.42;;;22.70;99.90;;;;;;2631555;46;20153;-81
2021/09/09 21:58:46;;;;;;;2.58;2.00;;;22.70;99.90;;;;;;2630984;47;20264;-78
2021/09/09 22:01:15;;;;;;;2.92;2.60;;;22.70;99.90;;;;;;2631269;54;20136;-78
2021/09/09 22:03:44;;;;;;;3.65;2.55;;;22.70;99.90;;;;;;2631072;54;20201;-79
2021/09/09 22:06:13;;;;;;;6.88;2.58;;;22.80;99.90;;;;;;2631289;47;20153;-80
2021/09/09 22:08:42;;;;;;;3.10;2.45;;;22.80;99.90;;;;;;2632400;46;20184;-81
2021/09/09 22:11:10;;;;;;;3.88;2.25;;;22.80;99.90;;;;;;2631223;54;20157;-80
2021/09/09 22:13:42;;;;;;;5.05;2.40;;;22.80;99.90;;;;;;2631136;54;20146;-79
2021/09/09 22:16:11;;;;;;;3.95;2.28;;;23.00;99.90;;;;;;2631212;47;20176;-80
2021/09/09 22:18:40;;;;;;;3.30;2.63;;;22.90;99.90;;;;;;2630987;54;20225;-77
2021/09/09 22:21:09;;;;;;;10.98;2.67;;;22.90;99.90;;;;;;2631332;47;20197;-79
2021/09/09 22:23:38;;;;;;;3.72;2.67;;;23.00;99.90;;;;;;2631194;47;20197;-80
2021/09/09 22:26:06;;;;;;;2.00;1.80;;;23.00;99.90;;;;;;2631260;47;20125;-79
2021/09/09 22:28:35;;;;;;;3.03;2.13;;;23.10;99.90;;;;;;2631100;54;20157;-79
2021/09/09 22:31:07;;;;;;;3.47;1.90;;;23.00;99.90;;;;;;2631231;47;20169;-78
2021/09/09 22:33:36;;;;;;;4.40;2.13;;;23.00;99.90;;;;;;2631027;47;20153;-80
2021/09/09 22:36:05;;;;;;;2.75;1.98;;;23.00;99.90;;;;;;2631215;47;20149;-80
2021/09/09 22:38:34;;;;;;;4.03;2.72;;;23.10;99.90;;;;;;2630937;46;20277;-80
2021/09/09 22:41:03;;;;;;;3.42;2.55;;;23.00;99.90;;;;;;2630803;47;20173;-80
2021/09/09 22:43:32;;;;;;;3.15;2.20;;;22.90;99.90;;;;;;2631007;47;20205;-80
2021/09/09 22:46:01;;;;;;;3.33;2.65;;;22.80;99.90;;;;;;2631159;47;20201;-79
2021/09/09 22:48:32;;;;;;;4.70;2.00;;;22.60;99.90;;;;;;2631019;54;20144;-80
2021/09/09 22:51:02;;;;;;;2.80;2.60;;;22.40;99.90;;;;;;2631033;46;20157;-80
2021/09/09 22:53:31;;;;;;;6.13;2.15;;;22.40;99.90;;;;;;2630876;47;20148;-79
2021/09/09 22:55:59;;;;;;;2.60;2.40;;;22.30;99.90;;;;;;2631048;47;20153;-80
2021/09/09 22:58:28;;;;;;;3.20;2.50;;;22.30;99.90;;;;;;2631012;47;20161;-79
2021/09/09 23:00:57;;;;;;;3.65;2.42;;;22.20;99.90;;;;;;2631052;51;20157;-81
2021/09/09 23:03:27;;;;;;;2.80;2.60;;;22.20;99.90;;;;;;2630956;47;20149;-80
2021/09/09 23:05:58;;;;;;;2.50;2.30;;;22.30;99.90;;;;;;2631064;47;20206;-81
2021/09/09 23:08:27;;;;;;;2.85;2.17;;;22.00;99.90;;;;;;2631036;54;20161;-81
2021/09/09 23:10:55;;;;;;;3.38;2.10;;;21.90;99.90;;;;;;2630898;47;20189;-80
2021/09/09 23:13:24;;;;;;;2.28;2.08;;;21.90;99.90;;;;;;2630603;47;20157;-79
2021/09/09 23:15:53;;;;;;;2.17;2.08;;;21.90;99.90;;;;;;2631044;47;20149;-80
2021/09/09 23:18:22;;;;;;;3.30;2.50;;;22.00;99.90;;;;;;2633385;39;20832;-82
2021/09/09 23:20:51;;;;;;;2.58;2.22;;;21.90;99.90;;;;;;2631026;47;20156;-78
2021/09/09 23:23:22;;;;;;;2.67;2.33;;;21.80;99.90;;;;;;2630861;51;20161;-79
2021/09/09 23:25:51;;;;;;;1.85;1.73;;;21.90;99.90;;;;;;2630852;47;20189;-79
2021/09/09 23:28:20;;;;;;;4.05;2.50;;;21.70;99.90;;;;;;2630317;47;20204;-81
2021/09/09 23:30:49;;;;;;;2.33;2.13;;;21.80;99.90;;;;;;2634571;39;20864;-80
2021/09/09 23:33:18;;;;;;;2.55;2.35;;;21.90;99.90;;;;;;2630919;47;20146;-80
2021/09/09 23:35:46;;;;;;;2.35;2.17;;;21.80;99.90;;;;;;2630856;47;20149;-80
2021/09/09 23:38:15;;;;;;;3.47;2.63;;;21.90;99.90;;;;;;2630887;47;20145;-80
2021/09/09 23:40:47;;;;;;;2.20;2.00;;;21.80;99.90;;;;;;2630886;47;20145;-79
2021/09/09 23:43:15;;;;;;;3.22;2.20;;;21.80;99.90;;;;;;2630702;47;20149;-80
2021/09/09 23:45:44;;;;;;;2.25;2.05;;;21.80;99.90;;;;;;2630719;54;20534;-80
2021/09/09 23:48:13;;;;;;;3.95;2.40;;;21.70;99.90;;;;;;2630762;47;20173;-80
2021/09/09 23:50:42;;;;;;;3.40;2.88;;;21.60;99.90;;;;;;2630870;47;20133;-79
2021/09/09 23:53:10;;;;;;;2.60;2.40;;;22.00;99.90;;;;;;2630786;47;20126;-80
2021/09/09 23:55:39;;;;;;;2.50;2.30;;;22.00;99.90;;;;;;2638029;39;20829;-80